Weather at Aéroparc de Belfort-Fontaine [CLOSED]

Public forecast

Using degrees Celsius for public forecast. Weather courtesy of forecast.io.

Closest aviation weather report (METAR) to Aéroparc de Belfort-Fontaine

Closest report is EuroAirport Basel-Mulhouse-Freiburg Airport, 21.3 nm (39.5 km) E. Retrieved 2022/05/20 07:00 UTC (3 minutes ago):

LFSB 200700Z 14007KT CAVOK 23/15 Q1022 NOSIG

Closest aviation forecast (TAF) to Aéroparc de Belfort-Fontaine

Closest forecast is EuroAirport Basel-Mulhouse-Freiburg Airport, 21.3 nm (39.5 km) E. Retrieved 2022/05/20 06:22 UTC (41 minutes ago):

TAF LFSB 200500Z 2006/2106 14006KT CAVOK PROB30 TEMPO 2009/2011 FEW080CB BECMG 2013/2015 20010KT BECMG 2018/2020 26012KT FEW060CB PROB40 TEMPO 2021/2023 33018G30KT 2000 TSRA PROB30 TEMPO 2021/2023 1200 +TSRAGR BECMG 2100/2102 CAVOK BECMG 2102/2104 VRB03KT